Alameda, New Mexico
Current Conditions -  °F | °C
As of 4:48 PM on Thursday 27 Nov 2014 (Local Time) from KAEG Reporting Station
Few Clouds Few Clouds  
Wind Chill: 11°   Ceiling: Unl
Heat Index: 11°   Visibility: 10mi
Dew Point: -7°   Wind: 7mph
Humidity: 28%   Direction: 160°SSE
Pressure: 30.35"   Gusts: NA
Location:  35.1991°N, 106.662°W
Report Text: KAEG 272348Z 16006KT 10SM FEW200 11/M07 A3035
Loading
Personal Weather Stations






























Interactive Weather Map New forecast layout! Learn more

10-Day Weather Forecast

Advertisements
Track Severe Weather on mobile